Time;durP1;ratioP1;P1;durP2;ratioP2;P2;SDS_P1;SDS_P2;PMS_P1;PMS_P2;Temp;Humidity;BMP_temperature;BMP_pressure;BME280_temperature;BME280_humidity;BME280_pressure;Samples;Min_cycle;Max_cycle;Signal;HPM_P1;HPM_P2
2024/01/04 00:00:31;;;;;;;7.90;1.27;;;7.20;99.90;;;;;;5091997;28;20278;-77
2024/01/04 00:02:57;;;;;;;6.37;1.20;;;7.20;99.90;;;;;;5092312;28;20281;-77
2024/01/04 00:05:24;;;;;;;4.30;1.57;;;7.10;99.90;;;;;;5092295;28;20039;-77
2024/01/04 00:07:50;;;;;;;8.90;1.30;;;7.10;99.90;;;;;;5092643;28;20040;-77
2024/01/04 00:10:17;;;;;;;7.43;1.23;;;7.10;99.90;;;;;;5091936;28;20293;-78
2024/01/04 00:12:48;;;;;;;4.90;1.20;;;7.10;99.90;;;;;;5091509;28;20389;-78
2024/01/04 00:15:14;;;;;;;5.50;1.10;;;7.10;99.90;;;;;;5093040;28;20826;-78
2024/01/04 00:17:40;;;;;;;2.60;0.90;;;7.10;99.90;;;;;;5092066;28;20286;-77
2024/01/04 00:20:07;;;;;;;8.40;0.97;;;7.10;99.90;;;;;;5092707;28;20758;-77
2024/01/04 00:22:32;;;;;;;5.03;1.00;;;7.10;99.90;;;;;;5092831;28;20044;-77
2024/01/04 00:24:58;;;;;;;6.20;1.20;;;7.00;99.90;;;;;;5091608;28;20286;-77
2024/01/04 00:27:24;;;;;;;7.40;0.90;;;7.00;99.90;;;;;;5092668;28;20040;-77
2024/01/04 00:29:49;;;;;;;5.77;1.00;;;7.00;99.90;;;;;;5074615;28;20465;-78
2024/01/04 00:32:15;;;;;;;4.80;0.97;;;7.00;99.90;;;;;;5091815;28;20079;-77
2024/01/04 00:34:41;;;;;;;5.53;0.93;;;7.00;99.90;;;;;;5095010;28;20044;-78
2024/01/04 00:37:06;;;;;;;5.60;1.13;;;7.00;99.90;;;;;;5096322;28;20128;-77
2024/01/04 00:39:32;;;;;;;5.70;1.33;;;7.00;99.90;;;;;;5096287;28;20374;-77
2024/01/04 00:41:58;;;;;;;9.13;1.10;;;7.00;99.90;;;;;;5096381;28;20048;-77
2024/01/04 00:44:24;;;;;;;4.37;1.10;;;7.00;99.90;;;;;;5096360;28;20044;-77
2024/01/04 00:46:51;;;;;;;7.47;1.20;;;7.00;99.90;;;;;;5096187;28;20051;-77
2024/01/04 00:49:17;;;;;;;4.13;1.00;;;6.90;99.90;;;;;;5094946;28;20294;-77
2024/01/04 00:51:43;;;;;;;3.80;1.00;;;7.00;99.90;;;;;;5096121;28;20769;-77
2024/01/04 00:54:09;;;;;;;11.67;1.70;;;7.00;99.90;;;;;;5094644;28;20314;-77
2024/01/04 00:56:36;;;;;;;5.80;0.80;;;7.00;99.90;;;;;;5094974;28;20086;-77
2024/01/04 00:59:03;;;;;;;7.53;1.00;;;6.90;99.90;;;;;;5095692;28;20039;-77
2024/01/04 01:01:33;;;;;;;3.63;0.90;;;6.90;99.90;;;;;;5096092;28;20372;-77
2024/01/04 01:03:59;;;;;;;5.33;1.20;;;7.00;99.90;;;;;;5095970;28;20612;-77
2024/01/04 01:06:25;;;;;;;7.93;1.53;;;6.90;99.90;;;;;;5096194;28;20278;-77
2024/01/04 01:08:51;;;;;;;4.60;0.90;;;6.90;99.90;;;;;;5094456;28;20628;-77
2024/01/04 01:11:16;;;;;;;5.43;1.20;;;6.90;99.90;;;;;;5094733;28;20036;-77
2024/01/04 01:13:43;;;;;;;4.23;1.00;;;6.90;99.90;;;;;;5096005;28;20075;-77
2024/01/04 01:16:08;;;;;;;4.00;0.90;;;6.80;99.90;;;;;;5094451;28;20412;-77
2024/01/04 01:18:35;;;;;;;5.53;0.73;;;6.80;99.90;;;;;;5094801;28;20290;-78
2024/01/04 01:21:02;;;;;;;10.27;1.67;;;6.80;99.90;;;;;;5095410;28;20101;-77
2024/01/04 01:23:28;;;;;;;7.00;1.87;;;6.80;99.90;;;;;;5094489;28;20321;-77
2024/01/04 01:25:53;;;;;;;2.70;0.90;;;6.80;99.90;;;;;;5095115;28;20322;-77
2024/01/04 01:28:19;;;;;;;6.93;1.13;;;6.80;99.90;;;;;;5095465;28;20039;-77
2024/01/04 01:30:45;;;;;;;7.13;1.10;;;6.80;99.90;;;;;;5094601;28;20039;-77
2024/01/04 01:33:11;;;;;;;3.70;1.07;;;6.80;99.90;;;;;;5095306;28;20079;-77
2024/01/04 01:35:36;;;;;;;7.37;1.47;;;6.80;99.90;;;;;;5095501;28;20040;-77
2024/01/04 01:38:02;;;;;;;5.00;1.00;;;6.70;99.90;;;;;;5095099;28;20118;-77
2024/01/04 01:40:28;;;;;;;8.07;1.10;;;6.80;99.90;;;;;;5093464;28;20477;-77
2024/01/04 01:42:53;;;;;;;8.03;1.47;;;6.80;99.90;;;;;;5095303;28;20044;-77
2024/01/04 01:45:20;;;;;;;4.60;1.20;;;6.70;99.90;;;;;;5094817;28;20520;-77
2024/01/04 01:47:47;;;;;;;4.33;1.30;;;6.70;99.90;;;;;;5094957;28;20043;-77
2024/01/04 01:50:18;;;;;;;7.30;1.00;;;6.70;99.90;;;;;;5094870;28;20274;-77
2024/01/04 01:52:45;;;;;;;4.33;1.00;;;6.80;99.90;;;;;;5095015;28;20282;-77
2024/01/04 01:55:12;;;;;;;10.90;1.20;;;6.70;99.90;;;;;;5094594;28;20391;-77
2024/01/04 01:57:38;;;;;;;5.50;1.10;;;6.70;99.90;;;;;;5076807;28;20673;-77
2024/01/04 02:00:04;;;;;;;4.37;1.10;;;6.70;99.90;;;;;;5092688;28;20364;-77
2024/01/04 02:02:31;;;;;;;12.50;1.30;;;6.70;99.90;;;;;;5091434;28;20401;-77
2024/01/04 02:04:56;;;;;;;4.37;1.20;;;6.70;99.90;;;;;;5091229;28;20306;-77
2024/01/04 02:07:23;;;;;;;5.67;1.30;;;6.60;99.90;;;;;;5092452;28;20454;-77
2024/01/04 02:09:49;;;;;;;5.97;1.20;;;6.70;99.90;;;;;;5092434;28;20071;-77
2024/01/04 02:12:15;;;;;;;4.00;0.90;;;6.70;99.90;;;;;;5092735;28;20309;-77
2024/01/04 02:14:41;;;;;;;4.57;1.30;;;6.60;99.90;;;;;;5091895;28;20093;-78
2024/01/04 02:17:07;;;;;;;3.57;1.00;;;6.70;99.90;;;;;;5093379;28;20308;-77
2024/01/04 02:19:33;;;;;;;7.30;1.40;;;6.60;99.90;;;;;;5094390;28;20361;-78
2024/01/04 02:22:00;;;;;;;4.73;1.00;;;6.60;99.90;;;;;;5093153;28;20361;-77
2024/01/04 02:24:26;;;;;;;9.73;1.50;;;6.60;99.90;;;;;;5094286;28;20040;-77
2024/01/04 02:26:52;;;;;;;5.80;1.10;;;6.60;99.90;;;;;;5093392;28;20290;-78
2024/01/04 02:29:18;;;;;;;9.73;1.00;;;6.60;99.90;;;;;;5094075;28;20048;-77
2024/01/04 02:31:45;;;;;;;4.30;1.00;;;6.60;99.90;;;;;;5093206;28;20286;-77
2024/01/04 02:34:11;;;;;;;4.00;0.93;;;6.50;99.90;;;;;;5092962;28;20044;-77
2024/01/04 02:36:36;;;;;;;9.03;1.40;;;6.60;99.90;;;;;;5094182;28;20285;-77
2024/01/04 02:39:02;;;;;;;5.43;1.13;;;6.50;99.90;;;;;;5093851;28;20437;-77
2024/01/04 02:41:28;;;;;;;2.93;0.70;;;6.60;99.90;;;;;;5092920;28;20127;-77
2024/01/04 02:43:54;;;;;;;3.33;0.80;;;6.60;99.90;;;;;;5094083;28;20044;-77
2024/01/04 02:46:19;;;;;;;5.77;1.03;;;6.50;99.90;;;;;;5092302;28;20070;-77
2024/01/04 02:48:45;;;;;;;4.60;1.07;;;6.50;99.90;;;;;;5093910;28;20433;-77
2024/01/04 02:51:11;;;;;;;4.97;0.90;;;6.50;99.90;;;;;;5092803;28;20127;-77
2024/01/04 02:53:36;;;;;;;3.83;1.20;;;6.50;99.90;;;;;;5093790;28;20070;-77
2024/01/04 02:56:04;;;;;;;10.43;1.40;;;6.50;99.90;;;;;;5092982;28;20081;-77
2024/01/04 02:58:30;;;;;;;6.57;1.00;;;6.50;99.90;;;;;;5093870;28;20044;-78
2024/01/04 03:00:56;;;;;;;3.57;1.07;;;6.40;99.90;;;;;;5092793;28;20778;-77
2024/01/04 03:03:21;;;;;;;5.93;0.93;;;6.40;99.90;;;;;;5092450;28;20113;-77
2024/01/04 03:05:47;;;;;;;5.43;1.30;;;6.30;99.90;;;;;;5093577;28;20046;-77
2024/01/04 03:08:14;;;;;;;8.20;1.20;;;6.30;99.90;;;;;;5093174;28;20130;-77
2024/01/04 03:10:40;;;;;;;6.57;1.67;;;6.30;99.90;;;;;;5092619;28;20106;-78
2024/01/04 03:13:08;;;;;;;4.80;1.17;;;6.30;99.90;;;;;;5093517;28;20277;-78
2024/01/04 03:15:34;;;;;;;6.27;1.10;;;6.30;99.90;;;;;;5093559;28;20036;-78
2024/01/04 03:18:00;;;;;;;4.80;1.00;;;6.30;99.90;;;;;;5092470;28;20376;-77
2024/01/04 03:20:25;;;;;;;5.87;1.20;;;6.30;99.90;;;;;;5093158;28;20496;-77
2024/01/04 03:22:51;;;;;;;6.80;1.10;;;6.30;99.90;;;;;;5092359;28;20043;-77
2024/01/04 03:25:17;;;;;;;5.60;1.30;;;6.30;99.90;;;;;;5093234;28;20571;-77
2024/01/04 03:27:43;;;;;;;3.30;1.00;;;6.30;99.90;;;;;;5093221;28;20545;-77
2024/01/04 03:30:10;;;;;;;5.60;0.93;;;6.20;99.90;;;;;;5093159;28;20631;-77
2024/01/04 03:32:36;;;;;;;6.50;1.20;;;6.20;99.90;;;;;;5093212;28;20285;-77
2024/01/04 03:35:04;;;;;;;4.10;1.10;;;6.20;99.90;;;;;;5093240;28;20285;-77
2024/01/04 03:37:30;;;;;;;4.63;1.33;;;6.20;99.90;;;;;;5093125;28;20754;-77
2024/01/04 03:39:56;;;;;;;8.90;1.30;;;6.20;99.90;;;;;;5093561;28;20282;-77
2024/01/04 03:42:22;;;;;;;7.60;1.80;;;6.20;99.90;;;;;;5091508;28;20492;-78
2024/01/04 03:44:47;;;;;;;5.33;1.03;;;6.20;99.90;;;;;;5093293;28;20108;-78
2024/01/04 03:47:13;;;;;;;4.80;1.10;;;6.20;99.90;;;;;;5093080;28;20040;-78
2024/01/04 03:49:39;;;;;;;3.77;1.07;;;6.20;99.90;;;;;;5091554;28;20036;-78
2024/01/04 03:52:05;;;;;;;6.07;1.13;;;6.20;99.90;;;;;;5092707;28;20044;-78
2024/01/04 03:54:30;;;;;;;5.23;1.03;;;6.20;99.90;;;;;;5092036;28;20040;-78
2024/01/04 03:56:57;;;;;;;3.33;1.10;;;6.20;99.90;;;;;;5093102;28;20047;-78
2024/01/04 03:59:22;;;;;;;5.53;0.87;;;6.20;99.90;;;;;;5092855;28;20431;-78
2024/01/04 04:01:48;;;;;;;9.03;2.07;;;6.20;99.90;;;;;;5091891;28;20286;-78
2024/01/04 04:04:15;;;;;;;4.63;1.03;;;6.20;99.90;;;;;;5092689;28;20044;-78
2024/01/04 04:06:41;;;;;;;3.77;0.80;;;6.20;99.90;;;;;;5093201;28;20051;-78
2024/01/04 04:09:07;;;;;;;5.60;1.03;;;6.20;99.90;;;;;;5097038;28;20289;-78
2024/01/04 04:11:33;;;;;;;5.37;1.00;;;6.10;99.90;;;;;;5095701;28;20282;-78
2024/01/04 04:14:00;;;;;;;4.83;1.07;;;6.10;99.90;;;;;;5079147;28;20286;-78
2024/01/04 04:16:25;;;;;;;5.73;1.13;;;6.10;99.90;;;;;;5096746;28;20597;-78
2024/01/04 04:18:51;;;;;;;5.80;1.20;;;6.00;99.90;;;;;;5095481;28;20265;-78
2024/01/04 04:21:24;;;;;;;6.80;1.23;;;6.00;99.90;;;;;;5096712;28;20111;-78
2024/01/04 04:23:50;;;;;;;5.20;1.13;;;6.00;99.90;;;;;;5096023;28;20040;-77
2024/01/04 04:26:20;;;;;;;6.13;1.10;;;6.00;99.90;;;;;;5096515;28;20423;-77
2024/01/04 04:28:47;;;;;;;3.57;1.10;;;6.00;99.90;;;;;;5096917;28;20305;-77
2024/01/04 04:31:14;;;;;;;5.97;1.53;;;6.00;99.90;;;;;;5095445;28;20289;-77
2024/01/04 04:33:40;;;;;;;7.87;1.10;;;6.10;99.90;;;;;;5096394;28;20364;-77
2024/01/04 04:36:06;;;;;;;4.50;0.90;;;6.10;99.90;;;;;;5096613;28;20419;-77
2024/01/04 04:38:34;;;;;;;7.82;1.30;;;6.00;99.90;;;;;;5095118;28;20307;-77
2024/01/04 04:41:00;;;;;;;6.83;1.10;;;6.10;99.90;;;;;;5096550;28;20063;-78
2024/01/04 04:43:26;;;;;;;5.83;1.47;;;6.10;99.90;;;;;;5095101;28;20377;-78
2024/01/04 04:45:52;;;;;;;6.20;1.03;;;6.00;99.90;;;;;;5095288;28;20400;-78
2024/01/04 04:48:18;;;;;;;4.43;1.10;;;6.10;99.90;;;;;;5095776;28;20067;-77
2024/01/04 04:50:43;;;;;;;5.23;1.50;;;6.00;99.90;;;;;;5095342;28;20492;-78
2024/01/04 04:53:09;;;;;;;8.17;1.63;;;6.00;99.90;;;;;;5096402;28;20040;-78
2024/01/04 04:55:35;;;;;;;4.57;1.10;;;6.00;99.90;;;;;;5096091;28;20817;-79
2024/01/04 04:58:00;;;;;;;4.57;1.23;;;6.00;99.90;;;;;;5078273;28;20036;-79
2024/01/04 05:00:27;;;;;;;7.20;1.20;;;6.00;99.90;;;;;;5094822;28;20069;-78
2024/01/04 05:02:52;;;;;;;7.93;1.17;;;5.90;99.90;;;;;;5095814;28;20036;-78
2024/01/04 05:05:18;;;;;;;7.63;1.20;;;5.90;99.90;;;;;;5095930;28;20274;-78
2024/01/04 05:07:44;;;;;;;5.17;1.23;;;5.90;99.90;;;;;;5094673;28;20120;-78
2024/01/04 05:10:09;;;;;;;6.20;1.47;;;5.90;99.90;;;;;;5095022;28;20485;-78
2024/01/04 05:12:36;;;;;;;7.10;1.20;;;5.90;99.90;;;;;;5095521;28;20040;-78
2024/01/04 05:15:02;;;;;;;7.07;1.20;;;5.90;99.90;;;;;;5095512;28;20040;-78
2024/01/04 05:17:28;;;;;;;6.13;1.30;;;5.90;99.90;;;;;;5094294;28;20369;-78
2024/01/04 05:19:53;;;;;;;5.10;1.47;;;5.80;99.90;;;;;;5094648;28;20799;-78
2024/01/04 05:22:19;;;;;;;3.83;1.20;;;5.80;99.90;;;;;;5095511;28;20154;-78
2024/01/04 05:24:45;;;;;;;9.30;2.03;;;5.80;99.90;;;;;;5094596;28;20046;-79
2024/01/04 05:27:10;;;;;;;7.73;1.20;;;5.80;99.90;;;;;;5094449;28;20044;-78
2024/01/04 05:29:36;;;;;;;6.83;1.10;;;5.80;99.90;;;;;;5094066;28;20040;-78
2024/01/04 05:32:02;;;;;;;6.17;1.00;;;5.70;99.90;;;;;;5095322;28;20075;-78
2024/01/04 05:34:32;;;;;;;4.47;1.00;;;5.80;99.90;;;;;;5094252;28;20035;-78
2024/01/04 05:36:58;;;;;;;5.17;1.20;;;5.80;99.90;;;;;;5094243;28;20274;-78
2024/01/04 05:39:25;;;;;;;7.33;1.53;;;5.70;99.90;;;;;;5094140;28;20296;-77
2024/01/04 05:41:51;;;;;;;4.97;1.07;;;5.80;99.90;;;;;;5094988;28;20293;-78
2024/01/04 05:44:17;;;;;;;4.93;1.30;;;5.70;99.90;;;;;;5094020;28;20282;-78
2024/01/04 05:46:43;;;;;;;5.63;1.07;;;5.70;99.90;;;;;;5094969;28;20054;-78
2024/01/04 05:49:09;;;;;;;5.73;1.00;;;5.70;99.90;;;;;;5077149;28;20036;-78
2024/01/04 05:51:34;;;;;;;3.97;0.90;;;5.70;99.90;;;;;;5094909;28;20047;-78
2024/01/04 05:54:02;;;;;;;7.27;1.70;;;5.60;99.90;;;;;;5095091;28;20040;-78
2024/01/04 05:56:28;;;;;;;3.83;1.20;;;5.70;99.90;;;;;;5093818;28;20385;-78
2024/01/04 05:58:54;;;;;;;8.10;1.60;;;5.60;99.90;;;;;;5093789;28;20286;-78
2024/01/04 06:01:19;;;;;;;9.40;1.47;;;5.70;99.90;;;;;;5093595;28;20477;-78
2024/01/04 06:03:45;;;;;;;5.43;1.10;;;5.70;99.90;;;;;;5093752;28;20047;-78
2024/01/04 06:06:14;;;;;;;4.93;0.93;;;5.70;99.90;;;;;;5094860;28;20105;-78
2024/01/04 06:08:41;;;;;;;3.43;1.17;;;5.70;99.90;;;;;;5094389;28;20040;-78
2024/01/04 06:11:07;;;;;;;6.97;1.67;;;5.70;99.90;;;;;;5093906;28;20325;-77
2024/01/04 06:13:33;;;;;;;11.07;1.60;;;5.70;99.90;;;;;;5093415;28;20278;-78
2024/01/04 06:16:07;;;;;;;6.20;1.33;;;5.80;99.90;;;;;;5094761;28;20282;-77
2024/01/04 06:18:33;;;;;;;6.10;1.20;;;5.80;99.90;;;;;;5094333;28;20481;-78
2024/01/04 06:20:59;;;;;;;3.13;0.87;;;5.80;99.90;;;;;;5094672;28;20618;-78
2024/01/04 06:23:26;;;;;;;3.80;0.87;;;5.70;99.90;;;;;;5094408;28;20286;-77
2024/01/04 06:25:52;;;;;;;4.47;1.07;;;5.70;99.90;;;;;;5094398;28;20044;-78
2024/01/04 06:28:17;;;;;;;6.67;1.10;;;5.70;99.90;;;;;;5092930;28;20779;-78
2024/01/04 06:30:43;;;;;;;2.73;0.70;;;5.70;99.90;;;;;;5093903;28;20048;-78
2024/01/04 06:33:09;;;;;;;3.90;1.03;;;5.70;99.90;;;;;;5094428;28;20050;-78
2024/01/04 06:35:35;;;;;;;7.17;0.90;;;5.70;99.90;;;;;;5094125;28;20274;-78
2024/01/04 06:38:04;;;;;;;5.97;1.10;;;5.70;99.90;;;;;;5094300;28;20473;-78
2024/01/04 06:40:29;;;;;;;4.60;1.20;;;5.70;99.90;;;;;;5093677;28;20090;-77
2024/01/04 06:42:55;;;;;;;8.20;1.10;;;5.70;99.90;;;;;;5092862;28;20333;-77
2024/01/04 06:45:22;;;;;;;6.37;1.57;;;5.70;99.90;;;;;;5093879;28;20044;-77
2024/01/04 06:47:49;;;;;;;4.87;1.00;;;5.70;99.90;;;;;;5092903;28;20420;-77
2024/01/04 06:50:14;;;;;;;6.70;1.00;;;5.80;99.90;;;;;;5094225;28;20285;-77
2024/01/04 06:52:40;;;;;;;5.13;1.03;;;5.80;99.90;;;;;;5093628;28;20619;-78
2024/01/04 06:55:06;;;;;;;5.30;1.27;;;5.80;99.90;;;;;;5093829;28;20040;-78
2024/01/04 06:57:32;;;;;;;7.13;1.53;;;5.80;99.90;;;;;;5092472;28;20047;-78
2024/01/04 06:59:57;;;;;;;3.23;1.03;;;5.80;99.90;;;;;;5093749;28;20277;-78
2024/01/04 07:02:23;;;;;;;7.27;1.50;;;5.80;99.90;;;;;;5093852;28;20071;-78
2024/01/04 07:04:49;;;;;;;6.57;1.07;;;5.80;99.90;;;;;;5092314;28;20474;-78
2024/01/04 07:07:14;;;;;;;6.60;1.33;;;5.80;99.90;;;;;;5093622;28;20040;-78
2024/01/04 07:09:40;;;;;;;11.33;2.03;;;5.80;99.90;;;;;;5093087;28;20456;-78
2024/01/04 07:12:07;;;;;;;5.60;1.60;;;5.70;99.90;;;;;;5093473;28;20035;-80
2024/01/04 07:14:38;;;;;;;4.37;1.20;;;5.70;99.90;;;;;;5092475;28;20040;-78
2024/01/04 07:17:04;;;;;;;6.37;1.40;;;5.70;99.90;;;;;;5093654;28;20278;-78
2024/01/04 07:19:30;;;;;;;5.00;1.60;;;5.60;99.90;;;;;;5093456;28;20365;-78
2024/01/04 07:21:56;;;;;;;4.10;1.30;;;5.60;99.90;;;;;;5093220;28;20335;-78
2024/01/04 07:24:22;;;;;;;7.53;1.23;;;5.60;99.90;;;;;;5093328;28;20040;-78
2024/01/04 07:26:48;;;;;;;11.20;1.30;;;5.70;99.90;;;;;;5093046;28;20339;-78
2024/01/04 07:29:13;;;;;;;7.30;1.50;;;5.70;99.90;;;;;;5093552;28;20108;-79
2024/01/04 07:31:39;;;;;;;9.57;1.50;;;5.70;99.90;;;;;;5092166;28;20462;-79
2024/01/04 07:34:06;;;;;;;6.87;1.30;;;5.70;99.90;;;;;;5092480;28;20051;-79
2024/01/04 07:36:34;;;;;;;5.27;1.13;;;5.60;99.90;;;;;;5093237;28;20278;-79
2024/01/04 07:39:00;;;;;;;5.35;1.20;;;5.60;99.90;;;;;;5091847;28;20663;-79
2024/01/04 07:41:26;;;;;;;6.47;1.30;;;5.60;99.90;;;;;;5091570;28;20098;-79
2024/01/04 07:43:52;;;;;;;5.97;1.37;;;5.50;99.90;;;;;;5091978;28;20285;-79
2024/01/04 07:46:18;;;;;;;7.50;1.27;;;5.50;99.90;;;;;;5092237;28;20282;-79
2024/01/04 07:48:44;;;;;;;7.00;1.67;;;5.50;99.90;;;;;;5091805;28;20048;-79
2024/01/04 07:51:09;;;;;;;6.07;1.33;;;5.50;99.90;;;;;;5092935;28;20509;-79
2024/01/04 07:53:35;;;;;;;5.03;1.27;;;5.50;99.90;;;;;;5091702;28;20274;-79
2024/01/04 07:56:01;;;;;;;4.50;1.10;;;5.40;99.90;;;;;;5092945;28;20040;-79
2024/01/04 07:58:27;;;;;;;9.63;1.70;;;5.40;99.90;;;;;;5093399;28;20050;-79
2024/01/04 08:00:53;;;;;;;6.63;1.30;;;5.40;99.90;;;;;;5091943;28;20274;-78
2024/01/04 08:03:18;;;;;;;7.63;1.83;;;5.40;99.90;;;;;;5091865;28;20040;-78
2024/01/04 08:05:44;;;;;;;4.87;1.13;;;5.40;99.90;;;;;;5092826;28;20050;-79
2024/01/04 08:08:10;;;;;;;8.10;1.47;;;5.40;99.90;;;;;;5091717;28;20550;-79
2024/01/04 08:10:36;;;;;;;10.77;1.87;;;5.40;99.90;;;;;;5092870;28;20040;-79
2024/01/04 08:13:01;;;;;;;4.47;1.23;;;5.40;99.90;;;;;;5091623;28;20040;-78
2024/01/04 08:15:29;;;;;;;3.80;1.10;;;5.50;99.90;;;;;;5093182;28;20278;-78
2024/01/04 08:17:54;;;;;;;6.87;1.67;;;5.50;99.90;;;;;;5091748;28;20048;-80
2024/01/04 08:20:20;;;;;;;5.60;1.40;;;5.50;99.90;;;;;;5092920;28;20812;-79
2024/01/04 08:22:46;;;;;;;5.17;1.40;;;5.40;99.90;;;;;;5092673;28;20043;-79
2024/01/04 08:25:12;;;;;;;7.27;1.90;;;5.50;99.90;;;;;;5092823;28;20508;-80
2024/01/04 08:27:37;;;;;;;6.63;1.20;;;5.50;99.90;;;;;;5092059;28;20043;-81
2024/01/04 08:30:03;;;;;;;6.13;1.27;;;5.50;99.90;;;;;;5092604;28;20428;-81
2024/01/04 08:32:29;;;;;;;6.47;1.63;;;5.50;99.90;;;;;;5074833;28;20044;-81
2024/01/04 08:34:55;;;;;;;5.37;1.23;;;5.50;99.90;;;;;;5092479;28;20285;-83
2024/01/04 08:37:20;;;;;;;6.67;1.17;;;5.50;99.90;;;;;;5058163;28;20040;-80
2024/01/04 08:39:46;;;;;;;4.40;1.40;;;5.50;99.90;;;;;;5092300;28;20501;-80
2024/01/04 08:42:12;;;;;;;7.43;1.40;;;5.50;99.90;;;;;;5091388;28;20390;-80
2024/01/04 08:44:38;;;;;;;6.60;1.40;;;5.50;99.90;;;;;;5092806;28;20048;-80
2024/01/04 08:47:04;;;;;;;4.80;1.53;;;5.50;99.90;;;;;;5074485;28;20293;-80
2024/01/04 08:49:29;;;;;;;7.33;1.50;;;5.50;99.90;;;;;;5092679;28;20043;-80
2024/01/04 08:51:55;;;;;;;8.17;2.20;;;5.60;99.90;;;;;;5092378;28;20400;-80
2024/01/04 08:54:21;;;;;;;8.13;1.73;;;5.60;99.90;;;;;;5093563;28;20040;-80
2024/01/04 08:56:47;;;;;;;10.67;1.90;;;5.60;99.90;;;;;;5095197;28;20083;-80
2024/01/04 08:59:12;;;;;;;6.53;1.40;;;5.70;99.90;;;;;;5096099;28;20036;-80
2024/01/04 09:01:38;;;;;;;7.03;2.13;;;5.70;99.90;;;;;;5096211;28;20496;-80
2024/01/04 09:04:04;;;;;;;4.67;1.43;;;5.70;99.90;;;;;;5095787;28;20036;-81
2024/01/04 09:06:31;;;;;;;7.33;1.37;;;5.70;99.90;;;;;;5095938;28;20098;-82
2024/01/04 09:08:59;;;;;;;4.90;1.50;;;5.80;99.90;;;;;;5094316;28;20040;-82
2024/01/04 09:11:27;;;;;;;5.40;1.50;;;5.70;99.90;;;;;;5095102;28;20274;-79
2024/01/04 09:13:53;;;;;;;4.80;1.37;;;5.70;99.90;;;;;;5095788;28;20294;-79
2024/01/04 09:16:21;;;;;;;5.23;1.80;;;5.70;99.90;;;;;;5095852;28;20285;-80
2024/01/04 09:18:47;;;;;;;6.67;1.77;;;5.80;99.90;;;;;;5095757;28;20066;-80
2024/01/04 09:21:12;;;;;;;7.33;1.60;;;5.80;99.90;;;;;;5095316;28;20290;-80
2024/01/04 09:23:38;;;;;;;6.33;1.50;;;5.90;99.90;;;;;;5095594;28;20050;-80
2024/01/04 09:26:08;;;;;;;7.33;1.47;;;5.80;99.90;;;;;;5094588;28;20040;-80
2024/01/04 09:28:35;;;;;;;4.87;1.30;;;5.80;99.90;;;;;;5095641;28;20362;-80
2024/01/04 09:31:00;;;;;;;7.03;1.70;;;5.90;99.90;;;;;;5094282;28;20759;-81
2024/01/04 09:33:26;;;;;;;6.13;1.30;;;5.90;99.90;;;;;;5095562;28;20289;-80
2024/01/04 09:35:52;;;;;;;8.23;1.80;;;5.80;99.90;;;;;;5094943;28;20158;-79
2024/01/04 09:38:19;;;;;;;7.80;1.43;;;5.80;99.90;;;;;;5095722;28;20035;-82
2024/01/04 09:40:50;;;;;;;5.77;1.43;;;5.70;99.90;;;;;;5093985;28;20060;-82
2024/01/04 09:43:16;;;;;;;5.83;1.70;;;5.60;99.90;;;;;;5095073;28;20678;-81
2024/01/04 09:45:44;;;;;;;9.40;2.00;;;5.70;99.90;;;;;;5077295;28;20281;-82
2024/01/04 09:48:12;;;;;;;5.93;1.50;;;5.70;99.90;;;;;;5094797;28;20322;-82
2024/01/04 09:50:39;;;;;;;5.67;1.83;;;5.80;99.90;;;;;;5077392;28;20282;-85
2024/01/04 09:53:07;;;;;;;7.53;1.80;;;5.80;99.90;;;;;;5060677;28;20285;-85
2024/01/04 09:55:35;;;;;;;5.13;1.47;;;5.80;99.90;;;;;;5077164;28;20281;-85
2024/01/04 09:58:03;;;;;;;7.67;1.70;;;5.90;99.90;;;;;;5093698;28;20290;-84
2024/01/04 10:00:29;;;;;;;6.27;1.63;;;5.90;99.90;;;;;;5076644;28;20802;-85
2024/01/04 10:02:56;;;;;;;7.73;1.80;;;6.00;99.90;;;;;;5094038;28;20274;-84
2024/01/04 10:05:22;;;;;;;6.83;1.50;;;6.00;99.90;;;;;;5087428;28;20654;-84
2024/01/04 10:08:03;;;;;;;8.37;2.03;;;6.00;99.90;;;;;;5093390;28;20771;-85
2024/01/04 10:10:35;;;;;;;5.60;1.50;;;5.90;99.90;;;;;;5089946;28;20329;-84
2024/01/04 10:13:02;;;;;;;7.17;1.50;;;5.90;99.90;;;;;;5093931;28;20297;-84
2024/01/04 10:15:28;;;;;;;4.07;1.40;;;5.80;99.90;;;;;;5092762;28;20763;-79
2024/01/04 10:17:56;;;;;;;5.67;1.37;;;5.80;99.90;;;;;;5093897;28;20353;-86
2024/01/04 10:20:22;;;;;;;8.63;1.60;;;5.80;99.90;;;;;;5092996;28;20035;-80
2024/01/04 10:22:49;;;;;;;12.47;3.63;;;5.70;99.90;;;;;;5092953;28;20616;-82
2024/01/04 10:25:18;;;;;;;10.90;2.57;;;5.70;99.90;;;;;;5094164;28;20048;-81
2024/01/04 10:27:55;;;;;;;4.37;1.30;;;5.60;99.90;;;;;;5094349;28;20601;-83
2024/01/04 10:30:21;;;;;;;5.70;1.60;;;5.60;99.90;;;;;;5094144;28;20285;-82
2024/01/04 10:32:53;;;;;;;6.23;1.47;;;5.50;99.90;;;;;;5076738;28;20286;-82
2024/01/04 10:35:29;;;;;;;8.43;2.20;;;5.60;99.90;;;;;;5093886;28;20335;-81
2024/01/04 10:38:01;;;;;;;4.47;1.40;;;5.50;99.90;;;;;;5093684;28;20790;-84
2024/01/04 10:40:27;;;;;;;7.03;2.30;;;5.50;99.90;;;;;;5092136;28;20282;-82
2024/01/04 10:42:53;;;;;;;5.83;1.60;;;5.50;99.90;;;;;;5093850;28;20315;-83
2024/01/04 10:45:29;;;;;;;4.90;1.90;;;5.50;99.90;;;;;;5076061;28;20047;-83
2024/01/04 10:47:56;;;;;;;8.80;2.33;;;5.50;99.90;;;;;;5093944;28;20380;-82
2024/01/04 10:50:25;;;;;;;5.93;1.40;;;5.50;99.90;;;;;;5092749;28;20286;-87
2024/01/04 10:52:55;;;;;;;5.97;1.50;;;5.50;99.90;;;;;;5093979;28;20365;-85
2024/01/04 10:55:21;;;;;;;6.53;1.30;;;5.50;99.90;;;;;;5092791;28;20337;-81
2024/01/04 10:57:48;;;;;;;6.77;2.13;;;5.50;99.90;;;;;;5093960;28;20323;-76
2024/01/04 11:00:15;;;;;;;7.57;2.53;;;5.50;99.90;;;;;;5093728;28;20285;-80
2024/01/04 11:02:43;;;;;;;6.43;1.50;;;5.40;99.90;;;;;;5093662;28;20789;-79
2024/01/04 11:05:10;;;;;;;3.10;1.20;;;5.50;99.90;;;;;;5093552;28;20298;-79
2024/01/04 11:07:39;;;;;;;7.83;1.77;;;5.40;99.90;;;;;;5093639;28;20359;-83
2024/01/04 11:10:06;;;;;;;6.60;1.53;;;5.50;99.90;;;;;;5092355;28;20298;-77
2024/01/04 11:12:33;;;;;;;4.50;1.23;;;5.50;99.90;;;;;;5094018;28;20274;-84
2024/01/04 11:14:59;;;;;;;4.10;1.20;;;5.50;99.90;;;;;;5093106;28;20293;-80
2024/01/04 11:18:00;;;;;;;7.20;1.80;;;5.40;99.90;;;;;;5092681;28;20274;-81
2024/01/04 11:20:44;;;;;;;4.03;1.10;;;5.50;99.90;;;;;;5093514;28;20278;-82
2024/01/04 11:23:31;;;;;;;6.13;1.30;;;5.50;99.90;;;;;;5092087;28;20283;-85
2024/01/04 11:26:39;;;;;;;4.83;1.33;;;5.50;99.90;;;;;;5089256;28;20282;-81
2024/01/04 11:29:09;;;;;;;5.77;1.30;;;5.50;99.90;;;;;;5084136;28;20303;-81
2024/01/04 11:31:41;;;;;;;6.13;1.10;;;5.50;99.90;;;;;;5093419;28;20290;-81
2024/01/04 11:34:09;;;;;;;6.27;1.07;;;5.60;99.90;;;;;;5092342;28;20593;-81
2024/01/04 11:36:35;;;;;;;6.97;1.63;;;5.60;99.90;;;;;;5093259;28;20290;-81
2024/01/04 11:39:01;;;;;;;5.13;1.37;;;5.60;99.90;;;;;;5093089;28;20274;-83
2024/01/04 11:41:39;;;;;;;5.00;1.30;;;5.60;99.90;;;;;;5091660;28;20048;-81
2024/01/04 11:44:16;;;;;;;7.17;1.90;;;5.60;99.90;;;;;;5093179;28;20113;-85
2024/01/04 11:46:43;;;;;;;5.10;1.53;;;5.70;99.90;;;;;;5093205;28;20274;-83
2024/01/04 11:49:11;;;;;;;5.57;1.30;;;5.70;99.90;;;;;;5092955;28;20298;-83
2024/01/04 11:51:47;;;;;;;4.37;1.17;;;5.70;99.90;;;;;;5093030;28;20047;-77
2024/01/04 11:54:15;;;;;;;6.80;1.17;;;5.70;99.90;;;;;;5093184;28;20600;-85
2024/01/04 11:56:41;;;;;;;5.93;1.80;;;5.70;99.90;;;;;;5092121;28;20290;-82
2024/01/04 11:59:08;;;;;;;4.53;1.20;;;5.70;99.90;;;;;;5093069;28;20755;-82
2024/01/04 12:01:41;;;;;;;9.00;2.93;;;5.80;99.90;;;;;;5092023;28;20290;-85
2024/01/04 12:04:12;;;;;;;2.30;0.80;;;5.80;99.90;;;;;;5091735;28;20282;-84
2024/01/04 12:06:39;;;;;;;5.73;1.93;;;5.80;99.90;;;;;;5093466;28;20285;-81
2024/01/04 12:09:09;;;;;;;7.47;1.90;;;5.80;99.90;;;;;;5092913;28;20360;-85
2024/01/04 12:11:36;;;;;;;6.50;2.00;;;5.90;99.90;;;;;;5093222;28;20365;-85
2024/01/04 12:14:02;;;;;;;4.87;2.17;;;5.90;99.90;;;;;;5091965;28;20289;-83
2024/01/04 12:16:29;;;;;;;7.40;2.00;;;6.00;99.90;;;;;;5092692;28;20290;-86
2024/01/04 12:18:56;;;;;;;5.53;1.50;;;6.00;99.90;;;;;;5093011;28;20754;-83
2024/01/04 12:21:23;;;;;;;6.10;1.33;;;6.10;99.90;;;;;;5092844;28;20282;-85
2024/01/04 12:23:49;;;;;;;7.47;1.60;;;6.00;99.90;;;;;;5075068;28;20422;-84
2024/01/04 12:26:16;;;;;;;5.17;1.30;;;6.10;99.90;;;;;;5091663;28;20293;-86
2024/01/04 12:28:42;;;;;;;5.57;1.33;;;6.00;99.90;;;;;;5093449;28;20812;-85
2024/01/04 12:31:08;;;;;;;3.87;1.40;;;6.00;99.90;;;;;;5096630;28;20278;-86
2024/01/04 12:33:34;;;;;;;5.80;1.63;;;6.00;99.90;;;;;;5095572;28;20282;-80
2024/01/04 12:36:00;;;;;;;5.23;1.50;;;5.90;99.90;;;;;;5096583;28;20286;-85
2024/01/04 12:38:27;;;;;;;8.93;1.83;;;5.90;99.90;;;;;;5078343;28;20078;-81
2024/01/04 12:40:53;;;;;;;6.23;1.97;;;5.90;99.90;;;;;;5096354;28;20766;-86
2024/01/04 12:43:23;;;;;;;9.03;1.87;;;6.00;99.90;;;;;;5096374;28;20327;-81
2024/01/04 12:46:05;;;;;;;5.87;1.90;;;6.00;99.90;;;;;;5096348;28;20270;-83
2024/01/04 12:48:31;;;;;;;6.10;1.50;;;5.90;99.90;;;;;;5096195;28;20351;-83
2024/01/04 12:51:11;;;;;;;4.10;1.43;;;5.90;99.90;;;;;;5096309;28;20758;-87
2024/01/04 12:53:37;;;;;;;6.40;1.23;;;5.90;99.90;;;;;;5096092;28;20130;-82
2024/01/04 12:56:03;;;;;;;6.37;2.47;;;5.90;99.90;;;;;;5078028;28;20278;-85